createdAt,value
2022-12-17T00:00:33.332Z,85.12
2022-12-17T00:03:19.767Z,85.46
2022-12-17T00:06:05.473Z,85.82
2022-12-17T00:08:50.362Z,85.55
2022-12-17T00:11:35.212Z,85.79
2022-12-17T00:14:20.175Z,85.75
2022-12-17T00:17:05.215Z,85.79
2022-12-17T00:19:50.531Z,85.90
2022-12-17T00:22:35.363Z,85.78
2022-12-17T00:25:20.112Z,86.50
2022-12-17T00:28:05.158Z,85.89
2022-12-17T00:30:50.194Z,86.63
2022-12-17T00:33:35.487Z,85.82
2022-12-17T00:36:20.891Z,86.17
2022-12-17T00:39:05.788Z,86.47
2022-12-17T00:41:50.796Z,86.16
2022-12-17T00:44:35.856Z,86.78
2022-12-17T00:47:20.747Z,86.33
2022-12-17T00:50:06.966Z,86.95
2022-12-17T00:52:52.113Z,86.61
2022-12-17T00:55:36.989Z,86.59
2022-12-17T00:58:22.361Z,86.72
2022-12-17T01:01:07.253Z,87.03
2022-12-17T01:03:52.398Z,86.75
2022-12-17T01:06:37.616Z,86.68
2022-12-17T01:09:22.361Z,87.15
2022-12-17T01:12:07.382Z,87.07
2022-12-17T01:14:54.916Z,87.21
2022-12-17T01:17:40.168Z,87.46
2022-12-17T01:20:26.152Z,87.56
2022-12-17T01:23:11.655Z,87.42
2022-12-17T01:26:16.459Z,87.63
2022-12-17T01:29:01.766Z,87.09
2022-12-17T01:31:47.155Z,87.82
2022-12-17T01:34:32.105Z,87.87
2022-12-17T01:37:16.988Z,87.56
2022-12-17T01:40:01.970Z,87.93
2022-12-17T01:43:01.208Z,88.05
2022-12-17T01:45:55.448Z,88.21
2022-12-17T01:48:46.169Z,88.42
2022-12-17T01:51:32.893Z,88.45
2022-12-17T01:54:20.760Z,88.72
2022-12-17T01:57:06.051Z,88.65
2022-12-17T02:00:02.430Z,88.67
2022-12-17T02:02:48.002Z,88.46
2022-12-17T02:05:33.297Z,88.62
2022-12-17T02:08:37.116Z,88.59
2022-12-17T02:11:44.989Z,88.42
2022-12-17T02:14:52.001Z,88.07
2022-12-17T02:17:42.704Z,88.10
2022-12-17T02:20:36.680Z,87.98
2022-12-17T02:23:40.613Z,87.99
2022-12-17T02:26:40.036Z,87.94
2022-12-17T02:29:31.188Z,88.18
2022-12-17T02:32:16.447Z,88.38
2022-12-17T02:35:03.977Z,87.92
2022-12-17T02:37:50.377Z,88.37
2022-12-17T02:40:39.180Z,88.33
2022-12-17T02:43:26.278Z,88.25
2022-12-17T02:46:14.659Z,88.46
2022-12-17T02:49:00.485Z,88.29
2022-12-17T02:51:49.082Z,88.94
2022-12-17T02:54:34.213Z,88.37
2022-12-17T02:57:19.331Z,88.57
2022-12-17T03:00:04.178Z,87.94
2022-12-17T03:02:51.717Z,88.12
2022-12-17T03:05:45.043Z,88.35
2022-12-17T03:08:30.887Z,88.52
2022-12-17T03:11:16.247Z,88.73
2022-12-17T03:14:01.217Z,88.33
2022-12-17T03:16:46.583Z,88.38
2022-12-17T03:19:31.769Z,88.67
2022-12-17T03:22:16.762Z,88.41
2022-12-17T03:25:01.968Z,89.06
2022-12-17T03:27:46.882Z,88.57
2022-12-17T03:30:35.736Z,88.03
2022-12-17T03:33:21.385Z,88.85
2022-12-17T03:36:06.274Z,88.68
2022-12-17T03:38:51.065Z,89.22
2022-12-17T03:41:36.041Z,88.52
2022-12-17T03:44:20.871Z,89.02
2022-12-17T03:47:05.659Z,89.05
2022-12-17T03:49:50.636Z,89.57
2022-12-17T03:52:35.472Z,89.61
2022-12-17T03:55:20.360Z,89.30
2022-12-17T03:58:05.055Z,89.50
2022-12-17T04:00:50.130Z,89.39
2022-12-17T04:03:35.549Z,89.16
2022-12-17T04:06:20.944Z,89.56
2022-12-17T04:09:05.838Z,89.29
2022-12-17T04:11:50.676Z,89.67
2022-12-17T04:14:35.470Z,89.05
2022-12-17T04:17:20.320Z,89.74
2022-12-17T04:20:05.223Z,89.05
2022-12-17T04:22:49.978Z,88.86
2022-12-17T04:25:34.913Z,89.72
2022-12-17T04:28:19.724Z,89.21
2022-12-17T04:31:04.579Z,88.97
2022-12-17T04:33:49.731Z,88.92
2022-12-17T04:36:34.568Z,88.69
2022-12-17T04:39:19.325Z,88.93
2022-12-17T04:42:04.125Z,89.05
2022-12-17T04:44:49.130Z,88.73
2022-12-17T04:47:33.968Z,88.65
2022-12-17T04:50:18.918Z,89.49
2022-12-17T04:53:03.707Z,88.76
2022-12-17T04:55:48.614Z,89.16
2022-12-17T04:58:33.414Z,89.04
2022-12-17T05:01:18.470Z,89.05
2022-12-17T05:04:03.693Z,88.39
2022-12-17T05:06:48.949Z,88.60
2022-12-17T05:09:34.129Z,88.11
2022-12-17T05:12:18.846Z,88.91
2022-12-17T05:15:03.666Z,88.38
2022-12-17T05:17:48.452Z,88.01
2022-12-17T05:20:33.281Z,87.75
2022-12-17T05:23:25.732Z,88.04
2022-12-17T05:26:23.658Z,87.73
2022-12-17T05:29:12.645Z,88.16
2022-12-17T05:32:01.015Z,87.91
2022-12-17T05:34:45.728Z,87.79
2022-12-17T05:37:30.526Z,88.11
2022-12-17T05:40:15.640Z,88.28
2022-12-17T05:43:00.482Z,87.99
2022-12-17T05:45:45.397Z,87.07
2022-12-17T05:48:30.250Z,87.47
2022-12-17T05:51:15.409Z,87.45
2022-12-17T05:54:00.282Z,86.92
2022-12-17T05:56:45.133Z,87.55
2022-12-17T05:59:29.857Z,86.93
2022-12-17T06:02:14.796Z,86.42
2022-12-17T06:05:02.275Z,86.57
2022-12-17T06:07:47.495Z,86.30
2022-12-17T06:10:32.383Z,86.22
2022-12-17T06:13:17.105Z,86.27
2022-12-17T06:16:02.103Z,85.83
2022-12-17T06:18:47.248Z,85.78
2022-12-17T06:21:32.132Z,85.62
2022-12-17T06:24:16.964Z,86.00
2022-12-17T06:27:01.678Z,86.07
2022-12-17T06:29:46.653Z,86.28
2022-12-17T06:32:31.484Z,85.87
2022-12-17T06:35:16.283Z,86.06
2022-12-17T06:38:01.138Z,86.38
2022-12-17T06:41:00.139Z,85.96
2022-12-17T06:43:44.933Z,86.12
2022-12-17T06:46:29.818Z,85.46
2022-12-17T06:49:14.998Z,86.32
2022-12-17T06:51:59.784Z,85.86
2022-12-17T06:54:44.659Z,86.00
2022-12-17T06:57:29.864Z,86.24
2022-12-17T07:00:14.716Z,86.25
2022-12-17T07:02:59.787Z,86.77
2022-12-17T07:05:45.395Z,86.22
2022-12-17T07:08:30.499Z,86.21
2022-12-17T07:11:18.777Z,85.62
2022-12-17T07:14:04.094Z,86.38
2022-12-17T07:16:48.852Z,86.59
2022-12-17T07:19:33.954Z,85.92
2022-12-17T07:22:18.773Z,86.20
2022-12-17T07:25:03.935Z,86.60
2022-12-17T07:27:48.892Z,86.43
2022-12-17T07:30:33.676Z,86.72
2022-12-17T07:33:20.104Z,86.75
2022-12-17T07:36:04.918Z,86.38
2022-12-17T07:38:49.851Z,86.14
2022-12-17T07:41:34.574Z,86.01
2022-12-17T07:44:19.517Z,86.08
2022-12-17T07:47:04.391Z,86.57
2022-12-17T07:49:49.751Z,85.51
2022-12-17T07:52:34.625Z,85.72
2022-12-17T07:55:19.862Z,85.76
2022-12-17T07:58:04.712Z,85.48
2022-12-17T08:00:54.015Z,85.69
2022-12-17T08:03:39.449Z,85.97
2022-12-17T08:06:25.194Z,85.40
2022-12-17T08:09:09.964Z,85.17
2022-12-17T08:11:55.213Z,85.05
2022-12-17T08:14:40.057Z,84.58
2022-12-17T08:17:24.993Z,84.36
2022-12-17T08:20:09.882Z,84.33
2022-12-17T08:22:54.696Z,84.88
2022-12-17T08:25:39.615Z,83.72
2022-12-17T08:28:49.502Z,83.55
2022-12-17T08:31:29.473Z,84.20
2022-12-17T08:34:14.354Z,84.34
2022-12-17T08:36:59.195Z,83.70
2022-12-17T08:40:03.962Z,83.56
2022-12-17T08:42:48.989Z,83.22
2022-12-17T08:45:34.141Z,82.54
2022-12-17T08:48:42.820Z,82.98
2022-12-17T08:51:27.948Z,82.96
2022-12-17T08:54:12.738Z,82.57
2022-12-17T08:56:57.701Z,82.28
2022-12-17T08:59:42.599Z,82.22
2022-12-17T09:02:28.113Z,81.91
2022-12-17T09:05:13.064Z,81.55
2022-12-17T09:08:05.820Z,80.77
2022-12-17T09:10:51.083Z,80.89
2022-12-17T09:13:36.177Z,80.99
2022-12-17T09:16:21.189Z,80.55
2022-12-17T09:19:06.242Z,79.84
2022-12-17T09:21:51.045Z,78.87
2022-12-17T09:24:35.833Z,78.44
2022-12-17T09:27:20.911Z,78.32
2022-12-17T09:30:05.710Z,78.38
2022-12-17T09:32:50.605Z,78.55
2022-12-17T09:35:35.721Z,77.18
2022-12-17T09:38:20.689Z,76.55
2022-12-17T09:41:08.805Z,76.15
2022-12-17T09:44:09.358Z,75.54
2022-12-17T09:47:19.531Z,75.35
2022-12-17T09:50:04.240Z,73.76
2022-12-17T09:52:55.070Z,73.24
2022-12-17T09:55:46.014Z,72.80
2022-12-17T09:58:44.018Z,71.64
2022-12-17T10:01:43.687Z,71.45
2022-12-17T10:04:46.959Z,71.40
2022-12-17T10:07:37.122Z,69.63
2022-12-17T10:10:35.647Z,68.90
2022-12-17T10:13:20.452Z,68.19
2022-12-17T10:16:05.354Z,67.81
2022-12-17T10:18:50.500Z,66.99
2022-12-17T10:21:37.885Z,66.18
2022-12-17T10:24:25.391Z,65.35
2022-12-17T10:27:10.586Z,64.85
2022-12-17T10:29:55.877Z,64.56
2022-12-17T10:32:43.384Z,62.91
2022-12-17T10:35:55.505Z,62.28
2022-12-17T10:38:46.597Z,62.72
2022-12-17T10:41:43.785Z,62.09
2022-12-17T10:44:39.649Z,62.07
2022-12-17T10:47:30.488Z,61.39
2022-12-17T10:50:17.194Z,60.83
2022-12-17T10:53:04.574Z,60.49
2022-12-17T10:55:51.410Z,59.91
2022-12-17T10:58:48.382Z,59.36
2022-12-17T11:01:42.467Z,59.18
2022-12-17T11:04:43.171Z,58.68
2022-12-17T11:07:33.987Z,58.39
2022-12-17T11:10:20.815Z,57.85
2022-12-17T11:13:20.347Z,57.45
2022-12-17T11:16:08.246Z,56.93
2022-12-17T11:19:02.696Z,56.48
2022-12-17T11:21:53.634Z,56.03
2022-12-17T11:24:50.942Z,55.53
2022-12-17T11:27:40.336Z,55.16
2022-12-17T11:30:40.475Z,54.65
2022-12-17T11:33:40.662Z,53.64
2022-12-17T11:36:45.594Z,53.23
2022-12-17T11:39:57.025Z,52.57
2022-12-17T11:43:11.053Z,52.71
2022-12-17T11:46:13.580Z,52.39
2022-12-17T11:49:06.662Z,52.06
2022-12-17T11:52:15.909Z,50.70
2022-12-17T11:55:28.452Z,50.36
2022-12-17T11:58:36.731Z,51.31
2022-12-17T12:01:34.951Z,51.11
2022-12-17T12:04:33.193Z,50.58
2022-12-17T12:07:38.772Z,49.47
2022-12-17T12:11:20.953Z,49.76
2022-12-17T12:14:11.758Z,49.09
2022-12-17T12:17:08.545Z,48.87
2022-12-17T12:20:18.958Z,49.09
2022-12-17T12:23:21.360Z,48.62
2022-12-17T12:26:40.978Z,48.56
2022-12-17T12:29:47.310Z,48.26
2022-12-17T12:33:09.660Z,47.36
2022-12-17T12:35:56.845Z,47.02
2022-12-17T12:38:52.793Z,47.07
2022-12-17T12:41:49.920Z,47.68
2022-12-17T12:44:49.850Z,46.60
2022-12-17T12:47:59.049Z,46.32
2022-12-17T12:51:33.591Z,47.07
2022-12-17T12:54:21.032Z,47.14
2022-12-17T12:57:06.275Z,46.43
2022-12-17T12:59:53.735Z,46.85
2022-12-17T13:02:38.481Z,46.78
2022-12-17T13:05:33.581Z,46.67
2022-12-17T13:08:23.129Z,46.60
2022-12-17T13:10:51.061Z,46.43
2022-12-17T13:13:27.576Z,46.58
2022-12-17T13:15:57.531Z,47.00
2022-12-17T13:18:32.997Z,47.06
2022-12-17T13:21:02.868Z,46.66
2022-12-17T13:23:38.046Z,47.25
2022-12-17T13:26:30.006Z,47.60
2022-12-17T13:29:11.609Z,48.38
2022-12-17T13:32:04.194Z,48.59
2022-12-17T13:34:52.798Z,48.28
2022-12-17T13:37:22.294Z,48.05
2022-12-17T13:39:54.683Z,47.54
2022-12-17T13:42:30.323Z,48.18
2022-12-17T13:44:57.794Z,48.49
2022-12-17T13:47:28.049Z,48.51
2022-12-17T13:50:32.274Z,48.71
2022-12-17T13:52:43.332Z,49.12
2022-12-17T13:55:19.468Z,49.36
2022-12-17T13:57:47.840Z,49.74
2022-12-17T14:00:20.477Z,49.60
2022-12-17T14:02:47.557Z,50.42
2022-12-17T14:05:41.558Z,50.53
2022-12-17T14:08:08.986Z,50.73
2022-12-17T14:10:35.538Z,51.29
2022-12-17T14:13:12.980Z,51.36
2022-12-17T14:15:47.224Z,51.31
2022-12-17T14:18:19.925Z,51.72
2022-12-17T14:20:47.609Z,52.12
2022-12-17T14:23:28.770Z,52.35
2022-12-17T14:25:56.428Z,52.88
2022-12-17T14:28:48.702Z,52.31
2022-12-17T14:31:29.882Z,53.27
2022-12-17T14:34:08.674Z,53.27
2022-12-17T14:36:37.908Z,52.94
2022-12-17T14:39:24.170Z,54.05
2022-12-17T14:42:10.168Z,54.84
2022-12-17T14:44:42.729Z,54.83
2022-12-17T14:47:23.423Z,56.15
2022-12-17T14:50:12.657Z,56.03
2022-12-17T14:52:44.415Z,56.60
2022-12-17T14:55:36.847Z,57.77
2022-12-17T14:58:12.159Z,57.22
2022-12-17T15:00:45.272Z,58.10
2022-12-17T15:03:18.371Z,58.71
2022-12-17T15:05:51.084Z,59.67
2022-12-17T15:08:17.628Z,60.06
2022-12-17T15:10:44.092Z,60.50
2022-12-17T15:13:10.533Z,61.14
2022-12-17T15:15:36.923Z,61.91
2022-12-17T15:18:03.423Z,62.39
2022-12-17T15:20:31.128Z,62.73
2022-12-17T15:22:57.707Z,63.33
2022-12-17T15:25:24.174Z,63.43
2022-12-17T15:27:50.868Z,63.84
2022-12-17T15:30:17.932Z,64.51
2022-12-17T15:32:45.225Z,64.87
2022-12-17T15:35:13.362Z,65.38
2022-12-17T15:37:40.311Z,65.95
2022-12-17T15:40:07.937Z,66.52
2022-12-17T15:42:53.025Z,66.71
2022-12-17T15:45:19.429Z,66.53
2022-12-17T15:47:45.840Z,66.90
2022-12-17T15:50:12.237Z,67.98
2022-12-17T15:52:38.674Z,67.93
2022-12-17T15:55:05.505Z,68.46
2022-12-17T15:57:32.006Z,68.22
2022-12-17T15:59:58.453Z,68.86
2022-12-17T16:02:25.108Z,69.07
2022-12-17T16:04:52.630Z,69.74
2022-12-17T16:07:19.142Z,69.63
2022-12-17T16:09:45.545Z,69.95
2022-12-17T16:12:11.991Z,70.22
2022-12-17T16:14:38.451Z,70.22
2022-12-17T16:17:04.874Z,70.39
2022-12-17T16:19:31.353Z,70.86
2022-12-17T16:21:57.810Z,70.59
2022-12-17T16:24:24.218Z,70.42
2022-12-17T16:26:50.715Z,71.20
2022-12-17T16:29:17.140Z,70.57
2022-12-17T16:31:43.668Z,71.00
2022-12-17T16:34:11.761Z,71.24
2022-12-17T16:36:38.663Z,70.99
2022-12-17T16:39:05.580Z,71.63
2022-12-17T16:41:32.455Z,71.86
2022-12-17T16:43:59.201Z,71.30
2022-12-17T16:46:31.564Z,71.95
2022-12-17T16:49:00.292Z,71.51
2022-12-17T16:51:29.532Z,72.06
2022-12-17T16:53:57.538Z,71.80
2022-12-17T16:56:27.527Z,72.06
2022-12-17T16:58:55.108Z,71.91
2022-12-17T17:01:25.360Z,71.49
2022-12-17T17:03:52.491Z,71.96
2022-12-17T17:06:19.490Z,72.13
2022-12-17T17:08:46.829Z,71.69
2022-12-17T17:11:15.569Z,71.99
2022-12-17T17:13:42.711Z,72.02
2022-12-17T17:16:10.720Z,71.63
2022-12-17T17:18:38.026Z,71.67
2022-12-17T17:21:19.607Z,72.31
2022-12-17T17:23:46.809Z,72.49
2022-12-17T17:26:13.916Z,72.24
2022-12-17T17:28:40.908Z,72.08
2022-12-17T17:31:10.772Z,72.39
2022-12-17T17:33:39.994Z,72.32
2022-12-17T17:36:08.725Z,72.61
2022-12-17T17:38:37.113Z,72.36
2022-12-17T17:41:04.784Z,72.67
2022-12-17T17:43:31.800Z,72.52
2022-12-17T17:46:10.507Z,72.51
2022-12-17T17:48:37.732Z,72.39
2022-12-17T17:51:08.320Z,72.87
2022-12-17T17:53:35.584Z,73.32
2022-12-17T17:56:07.545Z,72.38
2022-12-17T17:58:34.785Z,73.02
2022-12-17T18:01:08.296Z,72.95
2022-12-17T18:03:34.911Z,72.91
2022-12-17T18:06:06.232Z,72.73
2022-12-17T18:08:33.005Z,72.92
2022-12-17T18:11:01.972Z,73.46
2022-12-17T18:13:47.003Z,73.33
2022-12-17T18:18:41.594Z,73.06
2022-12-17T18:21:17.173Z,73.80
2022-12-17T18:23:43.803Z,73.42
2022-12-17T18:26:16.756Z,73.63
2022-12-17T18:28:44.348Z,73.42
2022-12-17T18:31:22.926Z,73.40
2022-12-17T18:33:58.638Z,73.73
2022-12-17T18:36:28.661Z,74.10
2022-12-17T18:39:00.733Z,73.64
2022-12-17T18:41:46.521Z,74.02
2022-12-17T18:44:14.359Z,73.60
2022-12-17T18:46:40.868Z,74.30
2022-12-17T18:49:09.790Z,74.55
2022-12-17T18:51:37.964Z,74.22
2022-12-17T18:54:08.495Z,74.17
2022-12-17T18:57:00.519Z,74.30
2022-12-17T18:59:29.074Z,74.58
2022-12-17T19:01:56.600Z,74.17
2022-12-17T19:04:23.925Z,74.80
2022-12-17T19:06:53.280Z,74.30
2022-12-17T19:09:28.965Z,74.49
2022-12-17T19:11:56.045Z,74.82
2022-12-17T19:14:23.232Z,74.73
2022-12-17T19:16:51.276Z,73.90
2022-12-17T19:19:18.962Z,74.37
2022-12-17T19:21:46.022Z,73.85
2022-12-17T19:24:14.452Z,74.08
2022-12-17T19:26:41.105Z,74.42
2022-12-17T19:29:08.534Z,74.13
2022-12-17T19:31:35.306Z,74.16
2022-12-17T19:34:04.874Z,74.76
2022-12-17T19:36:33.213Z,74.34
2022-12-17T19:39:03.485Z,74.38
2022-12-17T19:41:31.878Z,75.32
2022-12-17T19:44:01.054Z,74.87
2022-12-17T19:46:27.854Z,75.60
2022-12-17T19:48:54.842Z,76.06
2022-12-17T19:51:25.931Z,76.44
2022-12-17T19:53:52.619Z,76.23
2022-12-17T19:56:26.226Z,76.84
2022-12-17T19:58:55.969Z,76.73
2022-12-17T20:01:25.585Z,76.88
2022-12-17T20:03:53.690Z,76.95
2022-12-17T20:06:23.802Z,77.25
2022-12-17T20:08:50.682Z,77.34
2022-12-17T20:11:33.425Z,77.52
2022-12-17T20:14:26.548Z,77.60
2022-12-17T20:16:56.954Z,78.01
2022-12-17T20:19:26.073Z,77.73
2022-12-17T20:21:53.466Z,78.81
2022-12-17T20:24:19.993Z,78.61
2022-12-17T20:26:49.895Z,79.70
2022-12-17T20:29:17.744Z,79.44
2022-12-17T20:31:49.375Z,79.73
2022-12-17T20:34:17.302Z,80.55
2022-12-17T20:36:44.764Z,80.97
2022-12-17T20:39:11.783Z,81.24
2022-12-17T20:41:40.102Z,81.72
2022-12-17T20:44:10.965Z,82.18
2022-12-17T20:46:37.768Z,82.74
2022-12-17T20:49:05.238Z,82.42
2022-12-17T20:51:32.074Z,82.80
2022-12-17T20:54:00.131Z,83.42
2022-12-17T20:56:32.406Z,83.41
2022-12-17T20:59:04.810Z,83.21
2022-12-17T21:01:33.731Z,83.96
2022-12-17T21:04:01.233Z,83.47
2022-12-17T21:06:35.211Z,84.14
2022-12-17T21:09:02.222Z,84.15
2022-12-17T21:11:30.337Z,83.82
2022-12-17T21:13:57.619Z,84.28
2022-12-17T21:16:28.008Z,84.42
2022-12-17T21:18:55.545Z,84.31
2022-12-17T21:21:25.366Z,84.13
2022-12-17T21:23:52.838Z,84.04
2022-12-17T21:26:28.258Z,83.88
2022-12-17T21:28:59.152Z,84.23
2022-12-17T21:31:27.104Z,84.18
2022-12-17T21:33:57.866Z,84.76
2022-12-17T21:36:26.217Z,84.62
2022-12-17T21:38:53.369Z,84.38
2022-12-17T21:41:22.826Z,85.19
2022-12-17T21:43:54.540Z,85.23
2022-12-17T21:46:21.147Z,85.00
2022-12-17T21:48:48.073Z,85.53
2022-12-17T21:51:15.099Z,85.11
2022-12-17T21:53:43.539Z,85.17
2022-12-17T21:56:13.116Z,86.00
2022-12-17T21:58:41.024Z,85.99
2022-12-17T22:01:16.692Z,85.49
2022-12-17T22:03:45.999Z,85.52
2022-12-17T22:06:15.280Z,85.86
2022-12-17T22:08:42.872Z,86.09
2022-12-17T22:11:19.167Z,85.92
2022-12-17T22:14:08.927Z,85.85
2022-12-17T22:16:42.247Z,85.72
2022-12-17T22:19:11.073Z,85.41
2022-12-17T22:21:39.768Z,86.03
2022-12-17T22:24:07.438Z,85.88
2022-12-17T22:26:34.025Z,86.21
2022-12-17T22:29:00.783Z,86.23
2022-12-17T22:31:45.676Z,85.87
2022-12-17T22:35:05.155Z,86.03
2022-12-17T22:39:44.932Z,85.84
2022-12-17T22:44:33.953Z,85.51
2022-12-17T22:44:40.695Z,85.70
2022-12-17T22:45:48.842Z,85.58
2022-12-17T22:48:15.716Z,85.50
2022-12-17T22:51:01.300Z,85.05
2022-12-17T22:53:29.264Z,85.59
2022-12-17T22:56:14.610Z,85.85
2022-12-17T22:58:51.428Z,85.94
2022-12-17T23:01:22.733Z,85.93
2022-12-17T23:03:49.856Z,85.46
2022-12-17T23:06:17.816Z,85.29
2022-12-17T23:08:45.094Z,85.49
2022-12-17T23:11:14.558Z,85.73
2022-12-17T23:13:42.064Z,85.82
2022-12-17T23:16:11.091Z,86.14
2022-12-17T23:18:37.577Z,86.51
2022-12-17T23:21:07.892Z,85.89
2022-12-17T23:23:34.708Z,86.48
2022-12-17T23:26:16.930Z,86.56
2022-12-17T23:28:44.307Z,86.66
2022-12-17T23:31:19.157Z,86.02
2022-12-17T23:33:46.348Z,86.58
2022-12-17T23:36:15.835Z,86.34
2022-12-17T23:38:42.949Z,86.10
2022-12-17T23:41:11.528Z,86.15
2022-12-17T23:43:39.078Z,86.36
2022-12-17T23:46:07.891Z,86.46
2022-12-17T23:48:40.709Z,86.15
2022-12-17T23:51:10.825Z,86.14
2022-12-17T23:53:38.672Z,86.54
2022-12-17T23:56:13.947Z,86.75
2022-12-17T23:58:42.399Z,86.89
